sensor_id;sensor_type;location;lat;lon;timestamp;P1;durP1;ratioP1;P2;durP2;ratioP2
54430;SDS011;40342;52.998;5.862;2022-07-29T00:01:05;5.35;;;0.90;;
54430;SDS011;40342;52.998;5.862;2022-07-29T00:03:31;2.47;;;0.93;;
54430;SDS011;40342;52.998;5.862;2022-07-29T00:05:57;2.53;;;0.90;;
54430;SDS011;40342;52.998;5.862;2022-07-29T00:08:23;1.67;;;1.02;;
54430;SDS011;40342;52.998;5.862;2022-07-29T00:10:49;5.32;;;1.20;;
54430;SDS011;40342;52.998;5.862;2022-07-29T00:13:15;1.73;;;0.85;;
54430;SDS011;40342;52.998;5.862;2022-07-29T00:15:40;3.28;;;1.25;;
54430;SDS011;40342;52.998;5.862;2022-07-29T00:18:06;1.02;;;0.70;;
54430;SDS011;40342;52.998;5.862;2022-07-29T00:20:31;2.97;;;1.05;;
54430;SDS011;40342;52.998;5.862;2022-07-29T00:22:57;4.05;;;1.00;;
54430;SDS011;40342;52.998;5.862;2022-07-29T00:25:23;2.25;;;1.08;;
54430;SDS011;40342;52.998;5.862;2022-07-29T00:27:48;2.47;;;1.13;;
54430;SDS011;40342;52.998;5.862;2022-07-29T00:30:14;3.35;;;1.00;;
54430;SDS011;40342;52.998;5.862;2022-07-29T00:32:40;3.17;;;1.20;;
54430;SDS011;40342;52.998;5.862;2022-07-29T00:35:05;3.80;;;1.10;;
54430;SDS011;40342;52.998;5.862;2022-07-29T00:37:50;2.75;;;0.93;;
54430;SDS011;40342;52.998;5.862;2022-07-29T00:40:16;1.58;;;0.80;;
54430;SDS011;40342;52.998;5.862;2022-07-29T00:42:49;2.17;;;0.93;;
54430;SDS011;40342;52.998;5.862;2022-07-29T00:45:16;1.48;;;0.85;;
54430;SDS011;40342;52.998;5.862;2022-07-29T00:47:42;2.83;;;1.02;;
54430;SDS011;40342;52.998;5.862;2022-07-29T00:50:09;3.50;;;1.15;;
54430;SDS011;40342;52.998;5.862;2022-07-29T00:52:37;4.10;;;1.08;;
54430;SDS011;40342;52.998;5.862;2022-07-29T00:55:04;4.45;;;1.10;;
54430;SDS011;40342;52.998;5.862;2022-07-29T00:57:32;2.28;;;1.25;;
54430;SDS011;40342;52.998;5.862;2022-07-29T00:59:58;1.95;;;1.05;;
54430;SDS011;40342;52.998;5.862;2022-07-29T01:02:23;3.15;;;0.80;;
54430;SDS011;40342;52.998;5.862;2022-07-29T01:04:49;3.75;;;1.30;;
54430;SDS011;40342;52.998;5.862;2022-07-29T01:07:15;3.05;;;1.25;;
54430;SDS011;40342;52.998;5.862;2022-07-29T01:09:43;3.65;;;0.98;;
54430;SDS011;40342;52.998;5.862;2022-07-29T01:12:10;1.88;;;0.85;;
54430;SDS011;40342;52.998;5.862;2022-07-29T01:14:37;2.33;;;0.90;;
54430;SDS011;40342;52.998;5.862;2022-07-29T01:17:19;3.60;;;1.00;;
54430;SDS011;40342;52.998;5.862;2022-07-29T01:31:02;1.20;;;0.70;;
54430;SDS011;40342;52.998;5.862;2022-07-29T01:33:30;5.82;;;1.00;;
54430;SDS011;40342;52.998;5.862;2022-07-29T01:36:16;4.88;;;1.10;;
54430;SDS011;40342;52.998;5.862;2022-07-29T01:38:47;1.87;;;0.90;;
54430;SDS011;40342;52.998;5.862;2022-07-29T01:41:22;4.65;;;1.10;;
54430;SDS011;40342;52.998;5.862;2022-07-29T01:43:52;1.02;;;0.73;;
54430;SDS011;40342;52.998;5.862;2022-07-29T01:46:22;4.30;;;1.13;;
54430;SDS011;40342;52.998;5.862;2022-07-29T01:48:57;1.85;;;0.95;;
54430;SDS011;40342;52.998;5.862;2022-07-29T01:51:40;6.30;;;1.20;;
54430;SDS011;40342;52.998;5.862;2022-07-29T01:54:16;2.13;;;1.00;;
54430;SDS011;40342;52.998;5.862;2022-07-29T01:57:03;2.40;;;1.40;;
54430;SDS011;40342;52.998;5.862;2022-07-29T01:59:31;6.28;;;1.25;;
54430;SDS011;40342;52.998;5.862;2022-07-29T02:01:59;3.78;;;1.05;;
54430;SDS011;40342;52.998;5.862;2022-07-29T02:04:26;4.13;;;1.00;;
54430;SDS011;40342;52.998;5.862;2022-07-29T02:06:54;1.67;;;0.80;;
54430;SDS011;40342;52.998;5.862;2022-07-29T02:09:25;2.70;;;1.15;;
54430;SDS011;40342;52.998;5.862;2022-07-29T02:11:52;2.83;;;1.10;;
54430;SDS011;40342;52.998;5.862;2022-07-29T02:14:20;2.53;;;1.10;;
54430;SDS011;40342;52.998;5.862;2022-07-29T02:16:48;2.58;;;1.17;;
54430;SDS011;40342;52.998;5.862;2022-07-29T02:19:17;2.55;;;1.13;;
54430;SDS011;40342;52.998;5.862;2022-07-29T02:21:44;2.83;;;1.20;;
54430;SDS011;40342;52.998;5.862;2022-07-29T02:24:11;3.03;;;1.10;;
54430;SDS011;40342;52.998;5.862;2022-07-29T02:26:38;4.72;;;1.25;;
54430;SDS011;40342;52.998;5.862;2022-07-29T02:29:06;2.30;;;1.05;;
54430;SDS011;40342;52.998;5.862;2022-07-29T02:31:33;1.95;;;1.23;;
54430;SDS011;40342;52.998;5.862;2022-07-29T02:34:01;3.03;;;1.58;;
54430;SDS011;40342;52.998;5.862;2022-07-29T02:36:30;3.13;;;1.20;;
54430;SDS011;40342;52.998;5.862;2022-07-29T02:38:57;2.72;;;1.13;;
54430;SDS011;40342;52.998;5.862;2022-07-29T02:41:29;2.65;;;1.10;;
54430;SDS011;40342;52.998;5.862;2022-07-29T02:44:16;4.35;;;1.30;;
54430;SDS011;40342;52.998;5.862;2022-07-29T02:47:07;5.07;;;1.27;;
54430;SDS011;40342;52.998;5.862;2022-07-29T02:49:35;4.45;;;1.60;;
54430;SDS011;40342;52.998;5.862;2022-07-29T02:52:16;2.17;;;1.30;;
54430;SDS011;40342;52.998;5.862;2022-07-29T02:57:28;3.10;;;1.48;;
54430;SDS011;40342;52.998;5.862;2022-07-29T02:59:59;2.08;;;1.20;;
54430;SDS011;40342;52.998;5.862;2022-07-29T03:02:29;2.28;;;1.30;;
54430;SDS011;40342;52.998;5.862;2022-07-29T03:05:00;2.75;;;1.40;;
54430;SDS011;40342;52.998;5.862;2022-07-29T03:07:27;5.05;;;1.30;;
54430;SDS011;40342;52.998;5.862;2022-07-29T03:09:54;2.75;;;1.42;;
54430;SDS011;40342;52.998;5.862;2022-07-29T03:12:20;2.90;;;1.20;;
54430;SDS011;40342;52.998;5.862;2022-07-29T03:14:47;4.28;;;1.50;;
54430;SDS011;40342;52.998;5.862;2022-07-29T03:17:13;3.50;;;1.65;;
54430;SDS011;40342;52.998;5.862;2022-07-29T03:19:40;1.95;;;1.10;;
54430;SDS011;40342;52.998;5.862;2022-07-29T03:22:06;2.83;;;1.15;;
54430;SDS011;40342;52.998;5.862;2022-07-29T03:24:33;3.55;;;1.45;;
54430;SDS011;40342;52.998;5.862;2022-07-29T03:27:00;3.78;;;1.40;;
54430;SDS011;40342;52.998;5.862;2022-07-29T03:29:26;3.03;;;1.52;;
54430;SDS011;40342;52.998;5.862;2022-07-29T03:31:52;2.83;;;1.20;;
54430;SDS011;40342;52.998;5.862;2022-07-29T03:34:18;1.42;;;1.20;;
54430;SDS011;40342;52.998;5.862;2022-07-29T03:36:44;3.92;;;1.50;;
54430;SDS011;40342;52.998;5.862;2022-07-29T03:39:10;3.40;;;1.60;;
54430;SDS011;40342;52.998;5.862;2022-07-29T03:41:40;3.90;;;1.30;;
54430;SDS011;40342;52.998;5.862;2022-07-29T03:44:07;3.30;;;1.45;;
54430;SDS011;40342;52.998;5.862;2022-07-29T03:46:34;1.67;;;1.13;;
54430;SDS011;40342;52.998;5.862;2022-07-29T03:49:03;3.00;;;1.23;;
54430;SDS011;40342;52.998;5.862;2022-07-29T03:51:29;2.47;;;1.35;;
54430;SDS011;40342;52.998;5.862;2022-07-29T03:53:55;2.42;;;1.45;;
54430;SDS011;40342;52.998;5.862;2022-07-29T03:56:22;2.95;;;1.40;;
54430;SDS011;40342;52.998;5.862;2022-07-29T03:58:52;2.42;;;1.30;;
54430;SDS011;40342;52.998;5.862;2022-07-29T04:01:18;6.88;;;1.45;;
54430;SDS011;40342;52.998;5.862;2022-07-29T04:03:45;5.38;;;1.60;;
54430;SDS011;40342;52.998;5.862;2022-07-29T04:06:11;4.60;;;1.40;;
54430;SDS011;40342;52.998;5.862;2022-07-29T04:08:37;2.22;;;1.60;;
54430;SDS011;40342;52.998;5.862;2022-07-29T04:11:03;4.43;;;1.52;;
54430;SDS011;40342;52.998;5.862;2022-07-29T04:13:30;3.03;;;1.40;;
54430;SDS011;40342;52.998;5.862;2022-07-29T04:15:57;2.20;;;1.08;;
54430;SDS011;40342;52.998;5.862;2022-07-29T04:18:23;3.33;;;1.70;;
54430;SDS011;40342;52.998;5.862;2022-07-29T04:20:49;2.45;;;0.98;;
54430;SDS011;40342;52.998;5.862;2022-07-29T04:23:15;3.28;;;1.50;;
54430;SDS011;40342;52.998;5.862;2022-07-29T04:25:41;2.47;;;1.45;;
54430;SDS011;40342;52.998;5.862;2022-07-29T04:28:07;4.22;;;1.33;;
54430;SDS011;40342;52.998;5.862;2022-07-29T04:30:35;2.88;;;1.52;;
54430;SDS011;40342;52.998;5.862;2022-07-29T04:33:02;3.08;;;1.30;;
54430;SDS011;40342;52.998;5.862;2022-07-29T04:35:30;2.88;;;1.27;;
54430;SDS011;40342;52.998;5.862;2022-07-29T04:37:58;3.00;;;0.95;;
54430;SDS011;40342;52.998;5.862;2022-07-29T04:40:23;3.00;;;1.30;;
54430;SDS011;40342;52.998;5.862;2022-07-29T04:42:49;3.88;;;1.38;;
54430;SDS011;40342;52.998;5.862;2022-07-29T04:45:14;5.28;;;1.58;;
54430;SDS011;40342;52.998;5.862;2022-07-29T04:47:40;1.92;;;1.20;;
54430;SDS011;40342;52.998;5.862;2022-07-29T04:50:06;1.70;;;1.35;;
54430;SDS011;40342;52.998;5.862;2022-07-29T04:52:32;3.85;;;1.10;;
54430;SDS011;40342;52.998;5.862;2022-07-29T04:54:59;3.17;;;1.23;;
54430;SDS011;40342;52.998;5.862;2022-07-29T04:57:25;3.15;;;1.30;;
54430;SDS011;40342;52.998;5.862;2022-07-29T04:59:50;3.15;;;1.40;;
54430;SDS011;40342;52.998;5.862;2022-07-29T05:02:16;2.47;;;1.08;;
54430;SDS011;40342;52.998;5.862;2022-07-29T05:04:41;5.00;;;1.23;;
54430;SDS011;40342;52.998;5.862;2022-07-29T05:07:07;4.13;;;1.52;;
54430;SDS011;40342;52.998;5.862;2022-07-29T05:09:33;6.97;;;1.10;;
54430;SDS011;40342;52.998;5.862;2022-07-29T05:11:59;2.95;;;1.17;;
54430;SDS011;40342;52.998;5.862;2022-07-29T05:14:24;5.00;;;1.40;;
54430;SDS011;40342;52.998;5.862;2022-07-29T05:16:50;3.28;;;1.30;;
54430;SDS011;40342;52.998;5.862;2022-07-29T05:19:16;3.60;;;1.30;;
54430;SDS011;40342;52.998;5.862;2022-07-29T05:21:42;3.28;;;1.20;;
54430;SDS011;40342;52.998;5.862;2022-07-29T05:24:09;2.25;;;0.90;;
54430;SDS011;40342;52.998;5.862;2022-07-29T05:26:35;3.03;;;1.10;;
54430;SDS011;40342;52.998;5.862;2022-07-29T05:29:01;3.72;;;1.23;;
54430;SDS011;40342;52.998;5.862;2022-07-29T05:31:26;1.58;;;1.00;;
54430;SDS011;40342;52.998;5.862;2022-07-29T05:33:52;4.65;;;1.08;;
54430;SDS011;40342;52.998;5.862;2022-07-29T05:36:17;4.45;;;1.40;;
54430;SDS011;40342;52.998;5.862;2022-07-29T05:38:43;2.58;;;1.17;;
54430;SDS011;40342;52.998;5.862;2022-07-29T05:41:08;4.25;;;1.30;;
54430;SDS011;40342;52.998;5.862;2022-07-29T05:43:34;4.18;;;1.13;;
54430;SDS011;40342;52.998;5.862;2022-07-29T05:45:59;3.10;;;1.63;;
54430;SDS011;40342;52.998;5.862;2022-07-29T05:48:25;3.97;;;1.50;;
54430;SDS011;40342;52.998;5.862;2022-07-29T05:50:51;2.00;;;1.05;;
54430;SDS011;40342;52.998;5.862;2022-07-29T05:53:16;5.75;;;1.30;;
54430;SDS011;40342;52.998;5.862;2022-07-29T05:55:42;3.53;;;1.50;;
54430;SDS011;40342;52.998;5.862;2022-07-29T05:58:07;2.60;;;1.50;;
54430;SDS011;40342;52.998;5.862;2022-07-29T06:00:33;4.78;;;1.40;;
54430;SDS011;40342;52.998;5.862;2022-07-29T06:02:59;5.38;;;1.35;;
54430;SDS011;40342;52.998;5.862;2022-07-29T06:05:25;5.75;;;1.50;;
54430;SDS011;40342;52.998;5.862;2022-07-29T06:07:50;2.55;;;1.50;;
54430;SDS011;40342;52.998;5.862;2022-07-29T06:10:16;4.75;;;1.73;;
54430;SDS011;40342;52.998;5.862;2022-07-29T06:12:42;4.00;;;1.60;;
54430;SDS011;40342;52.998;5.862;2022-07-29T06:15:07;4.32;;;1.30;;
54430;SDS011;40342;52.998;5.862;2022-07-29T06:17:33;8.13;;;1.20;;
54430;SDS011;40342;52.998;5.862;2022-07-29T06:19:59;3.08;;;1.52;;
54430;SDS011;40342;52.998;5.862;2022-07-29T06:22:25;1.73;;;1.20;;
54430;SDS011;40342;52.998;5.862;2022-07-29T06:24:50;5.78;;;2.97;;
54430;SDS011;40342;52.998;5.862;2022-07-29T06:27:16;4.57;;;1.58;;
54430;SDS011;40342;52.998;5.862;2022-07-29T06:29:41;4.45;;;1.52;;
54430;SDS011;40342;52.998;5.862;2022-07-29T06:32:07;2.22;;;1.40;;
54430;SDS011;40342;52.998;5.862;2022-07-29T06:34:34;3.30;;;1.50;;
54430;SDS011;40342;52.998;5.862;2022-07-29T06:37:00;3.90;;;1.60;;
54430;SDS011;40342;52.998;5.862;2022-07-29T06:39:30;4.80;;;1.48;;
54430;SDS011;40342;52.998;5.862;2022-07-29T06:41:56;2.78;;;1.55;;
54430;SDS011;40342;52.998;5.862;2022-07-29T06:44:21;3.53;;;1.50;;
54430;SDS011;40342;52.998;5.862;2022-07-29T06:46:47;4.40;;;1.45;;
54430;SDS011;40342;52.998;5.862;2022-07-29T06:49:15;3.25;;;1.40;;
54430;SDS011;40342;52.998;5.862;2022-07-29T06:51:40;4.07;;;1.60;;
54430;SDS011;40342;52.998;5.862;2022-07-29T06:54:06;7.60;;;1.70;;
54430;SDS011;40342;52.998;5.862;2022-07-29T06:56:33;3.85;;;1.30;;
54430;SDS011;40342;52.998;5.862;2022-07-29T06:59:02;13.70;;;1.73;;
54430;SDS011;40342;52.998;5.862;2022-07-29T07:01:28;5.03;;;1.60;;
54430;SDS011;40342;52.998;5.862;2022-07-29T07:03:54;4.13;;;1.50;;
54430;SDS011;40342;52.998;5.862;2022-07-29T07:06:20;2.72;;;1.20;;
54430;SDS011;40342;52.998;5.862;2022-07-29T07:08:46;4.10;;;1.77;;
54430;SDS011;40342;52.998;5.862;2022-07-29T07:11:11;3.50;;;1.40;;
54430;SDS011;40342;52.998;5.862;2022-07-29T07:13:37;1.73;;;1.10;;
54430;SDS011;40342;52.998;5.862;2022-07-29T07:16:03;3.33;;;1.40;;
54430;SDS011;40342;52.998;5.862;2022-07-29T07:18:29;6.68;;;1.77;;
54430;SDS011;40342;52.998;5.862;2022-07-29T07:20:55;2.50;;;1.30;;
54430;SDS011;40342;52.998;5.862;2022-07-29T07:23:21;5.25;;;1.80;;
54430;SDS011;40342;52.998;5.862;2022-07-29T07:25:46;7.03;;;1.60;;
54430;SDS011;40342;52.998;5.862;2022-07-29T07:28:15;5.25;;;1.35;;
54430;SDS011;40342;52.998;5.862;2022-07-29T07:30:41;3.53;;;1.45;;
54430;SDS011;40342;52.998;5.862;2022-07-29T07:33:06;5.78;;;1.80;;
54430;SDS011;40342;52.998;5.862;2022-07-29T07:35:32;4.18;;;1.65;;
54430;SDS011;40342;52.998;5.862;2022-07-29T07:37:57;4.95;;;1.60;;
54430;SDS011;40342;52.998;5.862;2022-07-29T07:40:23;1.95;;;1.30;;
54430;SDS011;40342;52.998;5.862;2022-07-29T07:42:49;4.32;;;1.50;;
54430;SDS011;40342;52.998;5.862;2022-07-29T07:45:14;4.53;;;1.35;;
54430;SDS011;40342;52.998;5.862;2022-07-29T07:47:40;4.82;;;1.45;;
54430;SDS011;40342;52.998;5.862;2022-07-29T07:50:08;4.18;;;1.50;;
54430;SDS011;40342;52.998;5.862;2022-07-29T07:52:37;4.97;;;1.30;;
54430;SDS011;40342;52.998;5.862;2022-07-29T07:55:11;3.53;;;1.52;;
54430;SDS011;40342;52.998;5.862;2022-07-29T07:57:36;4.53;;;1.42;;
54430;SDS011;40342;52.998;5.862;2022-07-29T08:00:03;10.18;;;1.92;;
54430;SDS011;40342;52.998;5.862;2022-07-29T08:02:29;3.75;;;1.50;;
54430;SDS011;40342;52.998;5.862;2022-07-29T08:04:54;4.20;;;1.60;;
54430;SDS011;40342;52.998;5.862;2022-07-29T08:07:20;10.57;;;1.83;;
54430;SDS011;40342;52.998;5.862;2022-07-29T08:09:45;5.93;;;1.67;;
54430;SDS011;40342;52.998;5.862;2022-07-29T08:12:11;2.47;;;1.30;;
54430;SDS011;40342;52.998;5.862;2022-07-29T08:14:37;6.63;;;1.52;;
54430;SDS011;40342;52.998;5.862;2022-07-29T08:17:02;4.43;;;1.70;;
54430;SDS011;40342;52.998;5.862;2022-07-29T08:19:28;4.53;;;1.40;;
54430;SDS011;40342;52.998;5.862;2022-07-29T08:21:54;3.85;;;1.73;;
54430;SDS011;40342;52.998;5.862;2022-07-29T08:24:20;5.50;;;1.58;;
54430;SDS011;40342;52.998;5.862;2022-07-29T08:27:04;4.68;;;1.50;;
54430;SDS011;40342;52.998;5.862;2022-07-29T08:29:30;2.28;;;1.25;;
54430;SDS011;40342;52.998;5.862;2022-07-29T08:31:56;3.85;;;1.73;;
54430;SDS011;40342;52.998;5.862;2022-07-29T08:34:21;4.10;;;1.60;;
54430;SDS011;40342;52.998;5.862;2022-07-29T08:36:47;3.90;;;1.67;;
54430;SDS011;40342;52.998;5.862;2022-07-29T08:39:12;5.30;;;1.83;;
54430;SDS011;40342;52.998;5.862;2022-07-29T08:41:38;7.35;;;1.60;;
54430;SDS011;40342;52.998;5.862;2022-07-29T08:44:03;3.28;;;1.50;;
54430;SDS011;40342;52.998;5.862;2022-07-29T08:46:29;5.32;;;1.60;;
54430;SDS011;40342;52.998;5.862;2022-07-29T08:48:54;6.22;;;1.70;;
54430;SDS011;40342;52.998;5.862;2022-07-29T08:51:21;3.90;;;1.58;;
54430;SDS011;40342;52.998;5.862;2022-07-29T08:53:47;4.80;;;1.42;;
54430;SDS011;40342;52.998;5.862;2022-07-29T08:56:18;6.90;;;2.20;;
54430;SDS011;40342;52.998;5.862;2022-07-29T08:58:46;8.75;;;2.15;;
54430;SDS011;40342;52.998;5.862;2022-07-29T09:01:13;4.80;;;1.35;;
54430;SDS011;40342;52.998;5.862;2022-07-29T09:03:42;1.73;;;1.48;;
54430;SDS011;40342;52.998;5.862;2022-07-29T09:06:12;5.82;;;1.75;;
54430;SDS011;40342;52.998;5.862;2022-07-29T09:08:39;4.68;;;1.50;;
54430;SDS011;40342;52.998;5.862;2022-07-29T09:11:05;4.03;;;1.95;;
54430;SDS011;40342;52.998;5.862;2022-07-29T09:13:32;4.47;;;1.75;;
54430;SDS011;40342;52.998;5.862;2022-07-29T09:15:58;4.93;;;1.83;;
54430;SDS011;40342;52.998;5.862;2022-07-29T09:18:34;4.15;;;1.90;;
54430;SDS011;40342;52.998;5.862;2022-07-29T09:21:07;3.72;;;1.60;;
54430;SDS011;40342;52.998;5.862;2022-07-29T09:24:03;4.13;;;1.80;;
54430;SDS011;40342;52.998;5.862;2022-07-29T09:26:38;4.82;;;1.73;;
54430;SDS011;40342;52.998;5.862;2022-07-29T09:29:12;7.03;;;2.00;;
54430;SDS011;40342;52.998;5.862;2022-07-29T09:31:40;3.88;;;1.58;;
54430;SDS011;40342;52.998;5.862;2022-07-29T09:34:07;5.00;;;1.60;;
54430;SDS011;40342;52.998;5.862;2022-07-29T09:36:43;4.40;;;1.45;;
54430;SDS011;40342;52.998;5.862;2022-07-29T09:39:11;7.10;;;2.05;;
54430;SDS011;40342;52.998;5.862;2022-07-29T09:41:44;5.75;;;1.77;;
54430;SDS011;40342;52.998;5.862;2022-07-29T09:44:14;6.97;;;1.67;;
54430;SDS011;40342;52.998;5.862;2022-07-29T09:46:51;6.57;;;2.00;;
54430;SDS011;40342;52.998;5.862;2022-07-29T09:49:20;4.05;;;1.65;;
54430;SDS011;40342;52.998;5.862;2022-07-29T09:51:45;5.68;;;1.95;;
54430;SDS011;40342;52.998;5.862;2022-07-29T09:54:21;4.78;;;1.95;;
54430;SDS011;40342;52.998;5.862;2022-07-29T09:56:48;3.47;;;1.75;;
54430;SDS011;40342;52.998;5.862;2022-07-29T09:59:14;4.35;;;1.80;;
54430;SDS011;40342;52.998;5.862;2022-07-29T10:01:40;6.25;;;2.22;;
54430;SDS011;40342;52.998;5.862;2022-07-29T10:04:06;5.80;;;2.20;;
54430;SDS011;40342;52.998;5.862;2022-07-29T10:06:31;4.53;;;2.00;;
54430;SDS011;40342;52.998;5.862;2022-07-29T10:09:06;3.80;;;2.33;;
54430;SDS011;40342;52.998;5.862;2022-07-29T10:11:35;5.85;;;2.10;;
54430;SDS011;40342;52.998;5.862;2022-07-29T10:14:01;3.28;;;1.90;;
54430;SDS011;40342;52.998;5.862;2022-07-29T10:16:29;3.22;;;1.83;;
54430;SDS011;40342;52.998;5.862;2022-07-29T10:18:58;4.47;;;1.98;;
54430;SDS011;40342;52.998;5.862;2022-07-29T10:21:24;5.65;;;2.00;;
54430;SDS011;40342;52.998;5.862;2022-07-29T10:23:50;5.70;;;2.00;;
54430;SDS011;40342;52.998;5.862;2022-07-29T10:26:17;31.60;;;2.80;;
54430;SDS011;40342;52.998;5.862;2022-07-29T10:28:44;10.75;;;2.05;;
54430;SDS011;40342;52.998;5.862;2022-07-29T10:31:11;7.90;;;2.22;;
54430;SDS011;40342;52.998;5.862;2022-07-29T10:36:54;6.45;;;2.20;;
54430;SDS011;40342;52.998;5.862;2022-07-29T10:44:43;7.15;;;2.10;;
54430;SDS011;40342;52.998;5.862;2022-07-29T10:47:22;3.45;;;1.73;;
54430;SDS011;40342;52.998;5.862;2022-07-29T10:49:58;7.55;;;1.95;;
54430;SDS011;40342;52.998;5.862;2022-07-29T10:55:35;7.35;;;2.35;;
54430;SDS011;40342;52.998;5.862;2022-07-29T11:00:43;4.07;;;1.90;;
54430;SDS011;40342;52.998;5.862;2022-07-29T11:03:28;6.20;;;2.28;;
54430;SDS011;40342;52.998;5.862;2022-07-29T11:06:08;4.90;;;2.20;;
54430;SDS011;40342;52.998;5.862;2022-07-29T11:08:34;3.90;;;2.25;;
54430;SDS011;40342;52.998;5.862;2022-07-29T11:16:12;6.45;;;2.70;;
54430;SDS011;40342;52.998;5.862;2022-07-29T11:19:39;4.90;;;2.50;;
54430;SDS011;40342;52.998;5.862;2022-07-29T11:21:37;6.63;;;2.58;;
54430;SDS011;40342;52.998;5.862;2022-07-29T11:24:14;4.70;;;2.10;;
54430;SDS011;40342;52.998;5.862;2022-07-29T11:27:05;6.75;;;2.70;;
54430;SDS011;40342;52.998;5.862;2022-07-29T11:29:48;5.65;;;2.72;;
54430;SDS011;40342;52.998;5.862;2022-07-29T11:32:16;3.58;;;2.08;;
54430;SDS011;40342;52.998;5.862;2022-07-29T11:34:44;6.10;;;2.05;;
54430;SDS011;40342;52.998;5.862;2022-07-29T11:39:43;10.63;;;2.33;;
54430;SDS011;40342;52.998;5.862;2022-07-29T11:47:27;6.93;;;2.15;;
54430;SDS011;40342;52.998;5.862;2022-07-29T11:49:55;2.88;;;2.03;;
54430;SDS011;40342;52.998;5.862;2022-07-29T11:52:22;5.97;;;2.40;;
54430;SDS011;40342;52.998;5.862;2022-07-29T11:54:49;6.72;;;2.10;;
54430;SDS011;40342;52.998;5.862;2022-07-29T11:57:19;6.18;;;2.42;;
54430;SDS011;40342;52.998;5.862;2022-07-29T11:59:46;4.80;;;2.20;;
54430;SDS011;40342;52.998;5.862;2022-07-29T12:02:13;6.53;;;2.38;;
54430;SDS011;40342;52.998;5.862;2022-07-29T12:07:15;9.07;;;2.95;;
54430;SDS011;40342;52.998;5.862;2022-07-29T12:09:47;6.95;;;2.30;;
54430;SDS011;40342;52.998;5.862;2022-07-29T12:12:16;5.18;;;2.17;;
54430;SDS011;40342;52.998;5.862;2022-07-29T12:14:41;5.72;;;1.90;;
54430;SDS011;40342;52.998;5.862;2022-07-29T12:17:21;3.70;;;2.10;;
54430;SDS011;40342;52.998;5.862;2022-07-29T12:19:54;3.50;;;2.42;;
54430;SDS011;40342;52.998;5.862;2022-07-29T12:22:31;6.03;;;2.80;;
54430;SDS011;40342;52.998;5.862;2022-07-29T12:25:09;6.00;;;2.30;;
54430;SDS011;40342;52.998;5.862;2022-07-29T12:27:36;8.13;;;2.50;;
54430;SDS011;40342;52.998;5.862;2022-07-29T12:30:07;4.45;;;2.20;;
54430;SDS011;40342;52.998;5.862;2022-07-29T12:32:36;5.85;;;2.15;;
54430;SDS011;40342;52.998;5.862;2022-07-29T12:35:07;6.35;;;2.50;;
54430;SDS011;40342;52.998;5.862;2022-07-29T12:37:35;6.53;;;2.40;;
54430;SDS011;40342;52.998;5.862;2022-07-29T12:40:02;5.13;;;2.50;;
54430;SDS011;40342;52.998;5.862;2022-07-29T12:42:29;10.07;;;2.38;;
54430;SDS011;40342;52.998;5.862;2022-07-29T12:44:55;6.00;;;2.38;;
54430;SDS011;40342;52.998;5.862;2022-07-29T12:47:21;4.28;;;2.17;;
54430;SDS011;40342;52.998;5.862;2022-07-29T12:49:48;3.63;;;2.20;;
54430;SDS011;40342;52.998;5.862;2022-07-29T12:52:28;5.13;;;2.55;;
54430;SDS011;40342;52.998;5.862;2022-07-29T12:54:55;4.15;;;2.22;;
54430;SDS011;40342;52.998;5.862;2022-07-29T12:57:20;6.03;;;2.10;;
54430;SDS011;40342;52.998;5.862;2022-07-29T13:00:29;7.93;;;1.90;;
54430;SDS011;40342;52.998;5.862;2022-07-29T13:02:37;8.50;;;2.65;;
54430;SDS011;40342;52.998;5.862;2022-07-29T13:05:04;24.13;;;3.90;;
54430;SDS011;40342;52.998;5.862;2022-07-29T13:07:32;8.50;;;2.55;;
54430;SDS011;40342;52.998;5.862;2022-07-29T13:12:36;4.65;;;2.50;;
54430;SDS011;40342;52.998;5.862;2022-07-29T13:15:11;5.93;;;2.33;;
54430;SDS011;40342;52.998;5.862;2022-07-29T13:17:44;5.53;;;2.75;;
54430;SDS011;40342;52.998;5.862;2022-07-29T13:20:10;6.05;;;2.80;;
54430;SDS011;40342;52.998;5.862;2022-07-29T13:22:41;6.68;;;2.35;;
54430;SDS011;40342;52.998;5.862;2022-07-29T13:25:07;5.07;;;2.13;;
54430;SDS011;40342;52.998;5.862;2022-07-29T13:27:35;5.47;;;2.20;;
54430;SDS011;40342;52.998;5.862;2022-07-29T13:30:03;4.80;;;2.47;;
54430;SDS011;40342;52.998;5.862;2022-07-29T13:32:31;7.82;;;2.20;;
54430;SDS011;40342;52.998;5.862;2022-07-29T13:35:01;12.77;;;2.70;;
54430;SDS011;40342;52.998;5.862;2022-07-29T13:37:28;7.80;;;2.50;;
54430;SDS011;40342;52.998;5.862;2022-07-29T13:39:54;6.15;;;2.35;;
54430;SDS011;40342;52.998;5.862;2022-07-29T13:42:21;4.57;;;2.20;;
54430;SDS011;40342;52.998;5.862;2022-07-29T13:44:47;5.72;;;2.47;;
54430;SDS011;40342;52.998;5.862;2022-07-29T13:47:15;3.92;;;2.00;;
54430;SDS011;40342;52.998;5.862;2022-07-29T13:49:41;7.85;;;2.40;;
54430;SDS011;40342;52.998;5.862;2022-07-29T13:52:07;6.47;;;1.80;;
54430;SDS011;40342;52.998;5.862;2022-07-29T13:54:32;11.05;;;2.53;;
54430;SDS011;40342;52.998;5.862;2022-07-29T13:57:02;5.15;;;2.38;;
54430;SDS011;40342;52.998;5.862;2022-07-29T13:59:28;3.08;;;1.83;;
54430;SDS011;40342;52.998;5.862;2022-07-29T14:01:54;7.10;;;2.28;;
54430;SDS011;40342;52.998;5.862;2022-07-29T14:04:19;7.00;;;1.90;;
54430;SDS011;40342;52.998;5.862;2022-07-29T14:06:46;5.53;;;2.00;;
54430;SDS011;40342;52.998;5.862;2022-07-29T14:09:12;9.35;;;1.65;;
54430;SDS011;40342;52.998;5.862;2022-07-29T14:11:37;7.00;;;1.75;;
54430;SDS011;40342;52.998;5.862;2022-07-29T14:14:05;6.35;;;2.03;;
54430;SDS011;40342;52.998;5.862;2022-07-29T14:16:31;4.63;;;1.70;;
54430;SDS011;40342;52.998;5.862;2022-07-29T14:18:57;7.72;;;2.00;;
54430;SDS011;40342;52.998;5.862;2022-07-29T14:21:22;4.93;;;2.00;;
54430;SDS011;40342;52.998;5.862;2022-07-29T14:23:48;5.32;;;2.10;;
54430;SDS011;40342;52.998;5.862;2022-07-29T14:26:14;7.32;;;2.13;;
54430;SDS011;40342;52.998;5.862;2022-07-29T14:28:39;6.80;;;2.22;;
54430;SDS011;40342;52.998;5.862;2022-07-29T14:31:05;5.10;;;1.90;;
54430;SDS011;40342;52.998;5.862;2022-07-29T14:33:30;7.68;;;1.85;;
54430;SDS011;40342;52.998;5.862;2022-07-29T14:35:56;4.78;;;1.98;;
54430;SDS011;40342;52.998;5.862;2022-07-29T14:38:21;11.93;;;2.05;;
54430;SDS011;40342;52.998;5.862;2022-07-29T14:40:47;6.50;;;2.05;;
54430;SDS011;40342;52.998;5.862;2022-07-29T14:43:13;6.38;;;1.88;;
54430;SDS011;40342;52.998;5.862;2022-07-29T14:45:39;4.70;;;1.88;;
54430;SDS011;40342;52.998;5.862;2022-07-29T14:48:05;15.02;;;2.22;;
54430;SDS011;40342;52.998;5.862;2022-07-29T14:50:31;12.30;;;2.15;;
54430;SDS011;40342;52.998;5.862;2022-07-29T14:52:58;8.15;;;2.30;;
54430;SDS011;40342;52.998;5.862;2022-07-29T14:55:24;24.67;;;2.85;;
54430;SDS011;40342;52.998;5.862;2022-07-29T14:57:49;69.30;;;4.00;;
54430;SDS011;40342;52.998;5.862;2022-07-29T15:00:15;13.10;;;2.42;;
54430;SDS011;40342;52.998;5.862;2022-07-29T15:02:42;13.15;;;2.67;;
54430;SDS011;40342;52.998;5.862;2022-07-29T15:05:07;15.02;;;2.75;;
54430;SDS011;40342;52.998;5.862;2022-07-29T15:07:33;12.52;;;1.98;;
54430;SDS011;40342;52.998;5.862;2022-07-29T15:09:59;8.90;;;2.03;;
54430;SDS011;40342;52.998;5.862;2022-07-29T15:12:24;5.40;;;1.80;;
54430;SDS011;40342;52.998;5.862;2022-07-29T15:14:50;7.68;;;2.00;;
54430;SDS011;40342;52.998;5.862;2022-07-29T15:17:15;6.72;;;1.80;;
54430;SDS011;40342;52.998;5.862;2022-07-29T15:19:41;8.13;;;2.20;;
54430;SDS011;40342;52.998;5.862;2022-07-29T15:22:07;7.35;;;1.70;;
54430;SDS011;40342;52.998;5.862;2022-07-29T15:24:32;9.43;;;1.98;;
54430;SDS011;40342;52.998;5.862;2022-07-29T15:26:58;5.07;;;1.95;;
54430;SDS011;40342;52.998;5.862;2022-07-29T15:29:23;5.50;;;1.80;;
54430;SDS011;40342;52.998;5.862;2022-07-29T15:31:49;4.40;;;1.77;;
54430;SDS011;40342;52.998;5.862;2022-07-29T15:34:15;3.95;;;1.35;;
54430;SDS011;40342;52.998;5.862;2022-07-29T15:36:40;3.10;;;1.55;;
54430;SDS011;40342;52.998;5.862;2022-07-29T15:39:06;4.18;;;1.83;;